createdAt,value
2019-02-15T00:02:21.242Z,-0.50
2019-02-15T00:04:51.167Z,-0.50
2019-02-15T00:07:21.038Z,-0.50
2019-02-15T00:09:51.792Z,-0.50
2019-02-15T00:12:22.677Z,-0.60
2019-02-15T00:14:53.894Z,-0.60
2019-02-15T00:17:44.488Z,-0.60
2019-02-15T00:20:20.985Z,-0.60
2019-02-15T00:22:50.824Z,-0.60
2019-02-15T00:25:22.211Z,-0.60
2019-02-15T00:27:53.690Z,-0.60
2019-02-15T00:30:23.525Z,-0.60
2019-02-15T00:32:53.624Z,-0.60
2019-02-15T00:35:23.592Z,-0.60
2019-02-15T00:37:53.386Z,-0.60
2019-02-15T00:40:24.634Z,-0.60
2019-02-15T00:42:54.700Z,-0.60
2019-02-15T00:45:27.687Z,-0.60
2019-02-15T00:48:08.709Z,-0.70
2019-02-15T00:50:56.917Z,-0.70
2019-02-15T00:53:36.373Z,-0.80
2019-02-15T00:56:23.612Z,-0.70
2019-02-15T00:59:06.083Z,-0.80
2019-02-15T01:01:57.592Z,-0.70
2019-02-15T01:07:46.892Z,-0.80
2019-02-15T01:10:34.203Z,-0.80
2019-02-15T01:13:31.183Z,-0.90
2019-02-15T01:16:00.820Z,-0.90
2019-02-15T01:18:30.618Z,-0.80
2019-02-15T01:21:00.521Z,-0.90
2019-02-15T01:23:30.849Z,-0.90
2019-02-15T01:26:28.468Z,-0.90
2019-02-15T01:29:06.295Z,-0.90
2019-02-15T01:32:07.042Z,-0.90
2019-02-15T01:35:02.232Z,-0.90
2019-02-15T01:37:53.684Z,-0.90
2019-02-15T01:40:41.419Z,-0.90
2019-02-15T01:43:40.118Z,-1.00
2019-02-15T01:46:15.699Z,-1.00
2019-02-15T01:48:45.912Z,-1.00
2019-02-15T01:51:15.684Z,-1.00
2019-02-15T01:53:45.976Z,-1.00
2019-02-15T01:56:15.808Z,-1.00
2019-02-15T01:58:45.623Z,-1.00
2019-02-15T02:01:21.349Z,-1.00
2019-02-15T02:03:51.193Z,-1.00
2019-02-15T02:06:21.153Z,-1.00
2019-02-15T02:08:51.581Z,-1.00
2019-02-15T02:11:21.377Z,-1.10
2019-02-15T02:13:51.249Z,-1.10
2019-02-15T02:16:21.763Z,-1.10
2019-02-15T02:18:51.856Z,-1.10
2019-02-15T02:21:21.631Z,-1.10
2019-02-15T02:23:51.826Z,-1.10
2019-02-15T02:26:21.970Z,-1.10
2019-02-15T02:28:51.751Z,-1.10
2019-02-15T02:31:21.833Z,-1.10
2019-02-15T02:33:51.957Z,-1.10
2019-02-15T02:36:21.774Z,-1.10
2019-02-15T02:38:51.835Z,-1.10
2019-02-15T02:41:22.022Z,-1.20
2019-02-15T02:43:59.377Z,-1.10
2019-02-15T02:46:24.404Z,-1.20
2019-02-15T02:48:54.227Z,-1.20
2019-02-15T02:51:24.043Z,-1.20
2019-02-15T02:53:53.994Z,-1.20
2019-02-15T02:56:24.221Z,-1.20
2019-02-15T02:58:55.099Z,-1.20
2019-02-15T03:01:25.638Z,-1.20
2019-02-15T03:04:13.542Z,-1.20
2019-02-15T03:06:43.442Z,-1.30
2019-02-15T03:09:13.226Z,-1.30
2019-02-15T03:11:43.045Z,-1.30
2019-02-15T03:14:15.395Z,-1.30
2019-02-15T03:16:45.774Z,-1.20
2019-02-15T03:19:15.563Z,-1.30
2019-02-15T03:21:45.892Z,-1.30
2019-02-15T03:24:15.747Z,-1.30
2019-02-15T03:26:45.902Z,-1.30
2019-02-15T03:29:15.748Z,-1.30
2019-02-15T03:31:45.566Z,-1.30
2019-02-15T03:34:16.959Z,-1.30
2019-02-15T03:37:14.536Z,-1.40
2019-02-15T03:39:53.899Z,-1.40
2019-02-15T03:42:24.184Z,-1.40
2019-02-15T03:44:54.060Z,-1.40
2019-02-15T03:47:27.086Z,-1.40
2019-02-15T03:49:56.991Z,-1.40
2019-02-15T03:52:26.789Z,-1.40
2019-02-15T03:55:02.010Z,-1.40
2019-02-15T03:57:31.827Z,-1.40
2019-02-15T04:00:01.883Z,-1.40
2019-02-15T04:02:31.654Z,-1.40
2019-02-15T04:05:01.827Z,-1.40
2019-02-15T04:07:31.703Z,-1.40
2019-02-15T04:10:01.614Z,-1.50
2019-02-15T04:12:32.393Z,-1.40
2019-02-15T04:15:02.479Z,-1.40
2019-02-15T04:17:32.455Z,-1.40
2019-02-15T04:20:02.632Z,-1.50
2019-02-15T04:22:32.427Z,-1.50
2019-02-15T04:25:02.230Z,-1.50
2019-02-15T04:27:32.364Z,-1.50
2019-02-15T04:30:02.363Z,-1.50
2019-02-15T04:32:32.318Z,-1.50
2019-02-15T04:35:04.151Z,-1.50
2019-02-15T04:37:33.959Z,-1.50
2019-02-15T04:40:05.039Z,-1.50
2019-02-15T04:42:34.849Z,-1.50
2019-02-15T04:45:04.785Z,-1.50
2019-02-15T04:47:35.169Z,-1.50
2019-02-15T04:50:05.381Z,-1.50
2019-02-15T04:52:35.171Z,-1.50
2019-02-15T04:55:05.343Z,-1.50
2019-02-15T04:57:35.776Z,-1.50
2019-02-15T05:00:06.658Z,-1.50
2019-02-15T05:02:36.542Z,-1.50
2019-02-15T05:05:13.616Z,-1.50
2019-02-15T05:07:43.500Z,-1.50
2019-02-15T05:10:13.310Z,-1.50
2019-02-15T05:12:43.202Z,-1.50
2019-02-15T05:15:15.116Z,-1.60
2019-02-15T05:17:48.432Z,-1.60
2019-02-15T05:20:18.497Z,-1.60
2019-02-15T05:22:48.282Z,-1.60
2019-02-15T05:25:18.195Z,-1.60
2019-02-15T05:27:48.541Z,-1.60
2019-02-15T05:30:18.490Z,-1.60
2019-02-15T05:32:48.415Z,-1.60
2019-02-15T05:35:23.213Z,-1.60
2019-02-15T05:37:53.092Z,-1.60
2019-02-15T05:40:22.908Z,-1.60
2019-02-15T05:42:53.286Z,-1.60
2019-02-15T05:45:23.175Z,-1.60
2019-02-15T05:47:52.998Z,-1.60
2019-02-15T05:50:22.875Z,-1.60
2019-02-15T05:52:53.026Z,-1.60
2019-02-15T05:55:22.806Z,-1.60
2019-02-15T05:57:53.088Z,-1.60
2019-02-15T06:00:37.126Z,-1.60
2019-02-15T06:03:03.086Z,-1.70
2019-02-15T06:05:33.457Z,-1.70
2019-02-15T06:08:07.509Z,-1.60
2019-02-15T06:10:40.388Z,-1.60
2019-02-15T06:13:10.959Z,-1.60
2019-02-15T06:15:40.857Z,-1.60
2019-02-15T06:18:10.701Z,-1.60
2019-02-15T06:20:40.512Z,-1.60
2019-02-15T06:23:11.663Z,-1.60
2019-02-15T06:25:41.419Z,-1.60
2019-02-15T06:28:11.967Z,-1.70
2019-02-15T06:30:41.812Z,-1.70
2019-02-15T06:33:12.272Z,-1.70
2019-02-15T06:35:42.583Z,-1.70
2019-02-15T06:38:12.431Z,-1.70
2019-02-15T06:41:01.288Z,-1.70
2019-02-15T06:43:31.377Z,-1.70
2019-02-15T06:46:02.888Z,-1.60
2019-02-15T06:48:39.131Z,-1.70
2019-02-15T06:51:09.223Z,-1.70
2019-02-15T06:53:40.079Z,-1.70
2019-02-15T06:56:16.190Z,-1.70
2019-02-15T06:59:01.898Z,-1.60
2019-02-15T07:01:37.252Z,-1.60
2019-02-15T07:04:18.231Z,-1.60
2019-02-15T07:06:52.056Z,-1.60
2019-02-15T07:09:22.018Z,-1.60
2019-02-15T07:12:01.539Z,-1.60
2019-02-15T07:14:31.605Z,-1.60
2019-02-15T07:17:01.519Z,-1.60
2019-02-15T07:19:31.517Z,-1.60
2019-02-15T07:22:01.365Z,-1.60
2019-02-15T07:24:31.266Z,-1.60
2019-02-15T07:27:02.658Z,-1.50
2019-02-15T07:29:32.659Z,-1.50
2019-02-15T07:32:06.562Z,-1.50
2019-02-15T07:34:39.203Z,-1.50
2019-02-15T07:37:10.541Z,-1.50
2019-02-15T07:39:40.390Z,-1.40
2019-02-15T07:42:18.366Z,-1.40
2019-02-15T07:44:57.166Z,-1.40
2019-02-15T07:47:37.086Z,-1.30
2019-02-15T07:50:09.339Z,-1.30
2019-02-15T07:52:39.153Z,-1.20
2019-02-15T07:55:09.182Z,-1.20
2019-02-15T07:57:39.749Z,-1.10
2019-02-15T08:00:12.522Z,-1.10
2019-02-15T08:02:48.881Z,-1.10
2019-02-15T08:05:20.465Z,-1.00
2019-02-15T08:07:59.938Z,-0.90
2019-02-15T08:10:29.551Z,-0.80
2019-02-15T08:12:59.433Z,-0.80
2019-02-15T08:15:40.306Z,-0.70
2019-02-15T08:18:12.915Z,-0.60
2019-02-15T08:20:42.934Z,-0.60
2019-02-15T08:23:13.340Z,-0.50
2019-02-15T08:25:46.114Z,-0.40
2019-02-15T08:28:16.247Z,-0.30
2019-02-15T08:30:47.046Z,-0.30
2019-02-15T08:33:16.954Z,-0.20
2019-02-15T08:35:46.866Z,-0.10
2019-02-15T08:38:17.056Z,0.00
2019-02-15T08:40:53.223Z,0.10
2019-02-15T08:43:23.504Z,0.20
2019-02-15T08:46:00.506Z,0.40
2019-02-15T08:48:29.819Z,0.50
2019-02-15T08:51:02.033Z,0.60
2019-02-15T08:53:31.911Z,0.70
2019-02-15T08:56:04.850Z,0.90
2019-02-15T08:58:45.692Z,1.00
2019-02-15T09:01:15.702Z,1.20
2019-02-15T09:03:48.898Z,1.40
2019-02-15T09:06:22.830Z,1.50
2019-02-15T09:08:52.658Z,1.70
2019-02-15T09:11:27.380Z,1.90
2019-02-15T09:14:00.231Z,2.00
2019-02-15T09:16:30.394Z,2.10
2019-02-15T09:19:07.437Z,2.30
2019-02-15T09:21:37.487Z,2.50
2019-02-15T09:24:08.549Z,2.70
2019-02-15T09:26:38.461Z,2.90
2019-02-15T09:29:13.805Z,3.00
2019-02-15T09:31:43.560Z,3.20
2019-02-15T09:34:19.475Z,3.30
2019-02-15T09:36:54.441Z,3.40
2019-02-15T09:39:30.671Z,3.60
2019-02-15T09:42:00.459Z,3.70
2019-02-15T09:44:32.278Z,3.90
2019-02-15T09:47:03.146Z,4.00
2019-02-15T09:49:35.748Z,4.10
2019-02-15T09:52:05.643Z,4.20
2019-02-15T09:54:35.866Z,4.30
2019-02-15T09:57:06.102Z,4.50
2019-02-15T09:59:40.773Z,4.60
2019-02-15T10:02:10.641Z,4.70
2019-02-15T10:04:40.492Z,4.90
2019-02-15T10:07:16.493Z,5.00
2019-02-15T10:09:50.382Z,5.20
2019-02-15T10:12:21.892Z,5.30
2019-02-15T10:14:51.905Z,5.50
2019-02-15T10:17:22.223Z,5.60
2019-02-15T10:19:55.072Z,5.80
2019-02-15T10:22:25.381Z,5.90
2019-02-15T10:24:55.411Z,6.10
2019-02-15T10:27:26.171Z,6.30
2019-02-15T10:29:56.279Z,6.50
2019-02-15T10:32:26.385Z,6.60
2019-02-15T10:34:59.807Z,6.70
2019-02-15T10:37:29.601Z,7.00
2019-02-15T10:39:59.462Z,7.20
2019-02-15T10:42:29.774Z,7.40
2019-02-15T10:45:03.486Z,7.60
2019-02-15T10:47:33.510Z,7.80
2019-02-15T10:50:05.082Z,7.80
2019-02-15T10:52:36.305Z,7.90
2019-02-15T10:55:07.918Z,8.00
2019-02-15T10:57:38.642Z,8.10
2019-02-15T11:00:13.609Z,8.10
2019-02-15T11:02:43.452Z,8.30
2019-02-15T11:05:13.459Z,8.40
2019-02-15T11:07:43.362Z,8.60
2019-02-15T11:10:14.601Z,8.80
2019-02-15T11:12:44.583Z,8.90
2019-02-15T11:15:16.472Z,9.10
2019-02-15T11:17:46.423Z,9.20
2019-02-15T11:20:16.875Z,9.30
2019-02-15T11:22:49.256Z,9.30
2019-02-15T11:25:19.706Z,9.40
2019-02-15T11:27:51.686Z,9.40
2019-02-15T11:30:21.987Z,9.50
2019-02-15T11:32:52.221Z,9.50
2019-02-15T11:35:22.448Z,9.60
2019-02-15T11:37:52.526Z,9.70
2019-02-15T11:40:22.434Z,9.90
2019-02-15T11:42:52.315Z,10.00
2019-02-15T11:45:22.734Z,10.20
2019-02-15T11:48:00.437Z,10.30
2019-02-15T11:50:30.325Z,10.40
2019-02-15T11:53:00.157Z,10.50
2019-02-15T11:55:30.587Z,10.60
2019-02-15T11:58:00.495Z,10.80
2019-02-15T12:00:33.905Z,10.80
2019-02-15T12:03:05.054Z,10.90
2019-02-15T12:05:41.111Z,11.00
2019-02-15T12:08:11.036Z,11.10
2019-02-15T12:10:42.478Z,11.20
2019-02-15T12:13:12.355Z,11.30
2019-02-15T12:15:47.066Z,11.30
2019-02-15T12:18:16.811Z,11.40
2019-02-15T12:20:47.705Z,11.50
2019-02-15T12:23:18.146Z,11.60
2019-02-15T12:25:48.347Z,11.60
2019-02-15T12:28:18.490Z,11.70
2019-02-15T12:30:52.084Z,11.70
2019-02-15T12:33:22.211Z,11.80
2019-02-15T12:35:56.940Z,11.90
2019-02-15T12:38:30.579Z,11.90
2019-02-15T12:41:00.567Z,12.10
2019-02-15T12:43:30.980Z,12.10
2019-02-15T12:46:00.817Z,12.20
2019-02-15T12:48:30.913Z,12.20
2019-02-15T12:51:01.021Z,12.40
2019-02-15T12:53:31.237Z,12.50
2019-02-15T12:56:02.204Z,12.40
2019-02-15T12:58:32.521Z,12.40
2019-02-15T13:01:02.268Z,12.40
2019-02-15T13:03:32.360Z,12.40
2019-02-15T13:06:02.701Z,12.40
2019-02-15T13:08:32.748Z,12.40
2019-02-15T13:11:04.273Z,12.40
2019-02-15T13:13:48.073Z,12.40
2019-02-15T13:16:38.195Z,12.50
2019-02-15T13:19:08.088Z,12.50
2019-02-15T13:21:40.311Z,12.50
2019-02-15T13:24:10.225Z,12.50
2019-02-15T13:26:40.517Z,12.60
2019-02-15T13:29:14.205Z,12.60
2019-02-15T13:31:44.515Z,12.70
2019-02-15T13:34:17.438Z,12.70
2019-02-15T13:36:47.660Z,12.70
2019-02-15T13:39:22.575Z,12.60
2019-02-15T13:41:52.851Z,12.60
2019-02-15T13:44:30.455Z,12.70
2019-02-15T13:47:04.088Z,12.70
2019-02-15T13:49:37.130Z,12.70
2019-02-15T13:52:07.048Z,12.70
2019-02-15T13:54:47.101Z,12.70
2019-02-15T13:57:17.386Z,12.60
2019-02-15T13:59:53.342Z,12.70
2019-02-15T14:02:24.848Z,12.70
2019-02-15T14:04:56.642Z,12.80
2019-02-15T14:07:27.547Z,12.80
2019-02-15T14:10:04.561Z,12.80
2019-02-15T14:12:47.326Z,12.80
2019-02-15T14:15:42.832Z,12.80
2019-02-15T14:18:14.217Z,12.80
2019-02-15T14:20:44.618Z,12.90
2019-02-15T14:23:14.967Z,12.90
2019-02-15T14:25:44.958Z,12.90
2019-02-15T14:28:15.424Z,12.90
2019-02-15T14:30:50.975Z,13.00
2019-02-15T14:33:20.968Z,12.90
2019-02-15T14:35:54.287Z,12.90
2019-02-15T14:38:26.260Z,12.90
2019-02-15T14:40:59.777Z,12.90
2019-02-15T14:43:31.579Z,12.90
2019-02-15T14:46:01.478Z,12.90
2019-02-15T14:48:34.367Z,12.90
2019-02-15T14:51:06.388Z,12.90
2019-02-15T14:53:37.888Z,13.00
2019-02-15T14:56:13.184Z,13.00
2019-02-15T14:58:45.900Z,13.00
2019-02-15T15:01:16.551Z,13.00
2019-02-15T15:03:46.551Z,12.90
2019-02-15T15:06:16.567Z,12.90
2019-02-15T15:08:46.735Z,12.90
2019-02-15T15:11:18.831Z,12.80
2019-02-15T15:13:50.477Z,12.80
2019-02-15T15:16:20.657Z,12.70
2019-02-15T15:18:55.146Z,12.80
2019-02-15T15:21:25.232Z,12.70
2019-02-15T15:23:55.759Z,12.70
2019-02-15T15:26:26.560Z,12.70
2019-02-15T15:28:56.699Z,12.70
2019-02-15T15:31:26.581Z,12.70
2019-02-15T15:34:47.276Z,12.70
2019-02-15T15:37:20.069Z,12.70
2019-02-15T15:39:53.949Z,12.70
2019-02-15T15:42:29.579Z,12.70
2019-02-15T15:45:01.150Z,12.70
2019-02-15T15:47:33.545Z,12.60
2019-02-15T15:50:05.807Z,12.60
2019-02-15T15:52:36.043Z,12.50
2019-02-15T15:55:09.934Z,12.50
2019-02-15T15:57:42.813Z,12.50
2019-02-15T16:00:15.384Z,12.40
2019-02-15T16:03:14.396Z,12.40
2019-02-15T16:05:49.418Z,12.30
2019-02-15T16:08:20.828Z,12.30
2019-02-15T16:10:52.377Z,12.20
2019-02-15T16:13:22.536Z,12.20
2019-02-15T16:15:52.959Z,12.10
2019-02-15T16:18:34.593Z,12.10
2019-02-15T16:20:59.992Z,12.00
2019-02-15T16:24:12.161Z,11.90
2019-02-15T16:26:34.405Z,11.90
2019-02-15T16:29:08.035Z,11.80
2019-02-15T16:31:41.655Z,11.60
2019-02-15T16:34:52.156Z,11.50
2019-02-15T16:37:27.522Z,11.30
2019-02-15T16:39:57.463Z,11.20
2019-02-15T16:42:32.734Z,11.00
2019-02-15T16:45:15.376Z,10.90
2019-02-15T16:47:45.440Z,10.80
2019-02-15T16:50:15.674Z,10.70
2019-02-15T16:52:46.261Z,10.50
2019-02-15T16:55:26.987Z,10.40
2019-02-15T16:58:01.772Z,10.20
2019-02-15T17:00:34.998Z,10.10
2019-02-15T17:03:25.450Z,10.00
2019-02-15T17:05:55.437Z,9.90
2019-02-15T17:08:27.010Z,9.80
2019-02-15T17:10:58.644Z,9.70
2019-02-15T17:13:29.939Z,9.60
2019-02-15T17:16:10.793Z,9.50
2019-02-15T17:18:50.995Z,9.30
2019-02-15T17:21:15.975Z,9.20
2019-02-15T17:23:46.087Z,9.10
2019-02-15T17:26:23.804Z,8.90
2019-02-15T17:28:55.337Z,8.90
2019-02-15T17:31:27.240Z,8.70
2019-02-15T17:34:01.698Z,8.70
2019-02-15T17:36:31.899Z,8.60
2019-02-15T17:39:01.601Z,8.50
2019-02-15T17:41:34.147Z,8.50
2019-02-15T17:44:04.706Z,8.40
2019-02-15T17:46:46.220Z,8.30
2019-02-15T17:49:16.809Z,8.20
2019-02-15T17:51:48.345Z,8.10
2019-02-15T17:54:28.216Z,8.00
2019-02-15T17:57:03.251Z,7.90
2019-02-15T17:59:35.344Z,7.80
2019-02-15T18:02:08.656Z,7.70
2019-02-15T18:04:43.504Z,7.70
2019-02-15T18:07:15.318Z,7.60
2019-02-15T18:09:45.310Z,7.50
2019-02-15T18:12:16.871Z,7.40
2019-02-15T18:14:47.584Z,7.30
2019-02-15T18:17:18.066Z,7.20
2019-02-15T18:19:52.278Z,7.10
2019-02-15T18:22:24.752Z,7.00
2019-02-15T18:24:58.012Z,6.90
2019-02-15T18:27:35.429Z,6.90
2019-02-15T18:30:06.906Z,6.80
2019-02-15T18:32:42.896Z,6.70
2019-02-15T18:35:12.695Z,6.60
2019-02-15T18:37:48.165Z,6.60
2019-02-15T18:40:19.080Z,6.50
2019-02-15T18:42:55.207Z,6.40
2019-02-15T18:45:37.750Z,6.30
2019-02-15T18:48:12.368Z,6.20
2019-02-15T18:50:45.220Z,6.10
2019-02-15T18:53:16.011Z,6.00
2019-02-15T18:55:49.402Z,6.00
2019-02-15T18:58:22.701Z,5.90
2019-02-15T19:00:56.391Z,5.80
2019-02-15T19:03:29.425Z,5.80
2019-02-15T19:05:59.642Z,5.70
2019-02-15T19:08:33.622Z,5.60
2019-02-15T19:11:08.833Z,5.60
2019-02-15T19:13:39.042Z,5.50
2019-02-15T19:16:17.342Z,5.40
2019-02-15T19:18:49.241Z,5.40
2019-02-15T19:21:25.055Z,5.30
2019-02-15T19:24:12.325Z,5.30
2019-02-15T19:26:49.130Z,5.20
2019-02-15T19:29:22.005Z,5.10
2019-02-15T19:31:55.041Z,5.10
2019-02-15T19:34:40.461Z,5.00
2019-02-15T19:37:10.774Z,4.90
2019-02-15T19:40:09.631Z,4.80
2019-02-15T19:42:40.864Z,4.80
2019-02-15T19:45:38.658Z,4.70
2019-02-15T19:48:13.435Z,4.60
2019-02-15T19:50:47.206Z,4.60
2019-02-15T19:53:23.239Z,4.50
2019-02-15T19:55:53.419Z,4.50
2019-02-15T19:58:28.846Z,4.50
2019-02-15T20:01:01.097Z,4.40
2019-02-15T20:03:43.652Z,4.40
2019-02-15T20:06:16.160Z,4.40
2019-02-15T20:08:50.242Z,4.30
2019-02-15T20:11:35.936Z,4.20
2019-02-15T20:14:11.910Z,4.10
2019-02-15T20:16:45.256Z,4.00
2019-02-15T20:19:15.721Z,4.00
2019-02-15T20:21:51.699Z,4.00
2019-02-15T20:24:23.405Z,3.90
2019-02-15T20:27:12.620Z,3.90
2019-02-15T20:29:49.714Z,3.80
2019-02-15T20:32:30.796Z,3.80
2019-02-15T20:35:04.621Z,3.70
2019-02-15T20:37:42.173Z,3.70
2019-02-15T20:40:21.944Z,3.60
2019-02-15T20:42:59.120Z,3.60
2019-02-15T20:45:36.101Z,3.60
2019-02-15T20:48:11.849Z,3.50
2019-02-15T20:53:33.549Z,3.50
2019-02-15T20:56:05.159Z,3.50
2019-02-15T20:58:38.437Z,3.40
2019-02-15T21:01:11.466Z,3.40
2019-02-15T21:03:58.086Z,3.40
2019-02-15T21:09:13.712Z,3.30
2019-02-15T21:11:44.880Z,3.20
2019-02-15T21:14:22.898Z,3.20
2019-02-15T21:16:57.820Z,3.20
2019-02-15T21:19:44.109Z,3.20
2019-02-15T21:22:14.006Z,3.10
2019-02-15T21:24:56.124Z,3.10
2019-02-15T21:27:24.675Z,3.00
2019-02-15T21:29:56.176Z,3.00
2019-02-15T21:32:46.618Z,2.90
2019-02-15T21:35:24.460Z,2.90
2019-02-15T21:38:12.900Z,2.90
2019-02-15T21:40:53.277Z,2.80
2019-02-15T21:43:31.438Z,2.80
2019-02-15T21:46:05.115Z,2.80
2019-02-15T21:48:41.500Z,2.70
2019-02-15T21:51:13.823Z,2.70
2019-02-15T21:54:14.034Z,2.70
2019-02-15T21:57:01.821Z,2.60
2019-02-15T21:59:44.108Z,2.50
2019-02-15T22:02:15.295Z,2.50
2019-02-15T22:04:46.271Z,2.40
2019-02-15T22:07:19.727Z,2.40
2019-02-15T22:09:50.142Z,2.40
2019-02-15T22:12:23.267Z,2.30
2019-02-15T22:14:56.568Z,2.30
2019-02-15T22:17:33.267Z,2.20
2019-02-15T22:20:03.371Z,2.20
2019-02-15T22:22:36.538Z,2.20
2019-02-15T22:25:09.683Z,2.20
2019-02-15T22:27:39.955Z,2.20
2019-02-15T22:30:14.742Z,2.10
2019-02-15T22:32:49.744Z,2.10
2019-02-15T22:35:22.829Z,2.10
2019-02-15T22:37:57.539Z,2.10
2019-02-15T22:40:32.367Z,2.00
2019-02-15T22:43:29.954Z,1.90
2019-02-15T22:46:01.038Z,2.00
2019-02-15T22:48:31.646Z,1.90
2019-02-15T22:51:02.371Z,1.90
2019-02-15T22:53:32.896Z,1.80
2019-02-15T22:56:03.017Z,1.80
2019-02-15T22:58:33.581Z,1.80
2019-02-15T23:01:13.307Z,1.70
2019-02-15T23:03:53.423Z,1.70
2019-02-15T23:06:26.603Z,1.80
2019-02-15T23:09:01.456Z,1.70
2019-02-15T23:11:33.380Z,1.70
2019-02-15T23:14:19.118Z,1.70
2019-02-15T23:16:57.051Z,1.70
2019-02-15T23:19:28.480Z,1.70
2019-02-15T23:22:00.679Z,1.70
2019-02-15T23:24:30.380Z,1.70
2019-02-15T23:27:00.058Z,1.70
2019-02-15T23:29:30.660Z,1.70
2019-02-15T23:32:01.436Z,1.60
2019-02-15T23:34:45.093Z,1.60
2019-02-15T23:37:14.975Z,1.60
2019-02-15T23:39:46.884Z,1.60
2019-02-15T23:42:17.356Z,1.60
2019-02-15T23:44:47.401Z,1.60
2019-02-15T23:47:17.397Z,1.50
2019-02-15T23:50:10.096Z,1.50
2019-02-15T23:52:40.421Z,1.50
2019-02-15T23:55:10.438Z,1.50
2019-02-15T23:57:40.509Z,1.50
